sensor_id;sensor_type;location;lat;lon;timestamp;pressure;altitude;pressure_sealevel;temperature;humidity
57894;BME280;43710;47.460;19.034;2022-11-15T04:58:40;100849.25;;;9.52;95.58
57894;BME280;43710;47.460;19.034;2022-11-15T05:02:02;100849.25;;;9.52;95.58
57894;BME280;43710;47.460;19.034;2022-11-15T05:05:24;100847.97;;;9.12;91.76
57894;BME280;43710;47.460;19.034;2022-11-15T05:08:44;100851.13;;;8.99;87.12
57894;BME280;43710;47.460;19.034;2022-11-15T05:12:05;100861.00;;;8.99;100.00
57894;BME280;43710;47.460;19.034;2022-11-15T05:15:26;100859.88;;;8.89;87.02
57894;BME280;43710;47.460;19.034;2022-11-15T05:18:46;100865.72;;;8.86;87.31
57894;BME280;43710;47.460;19.034;2022-11-15T05:22:07;100870.31;;;8.91;82.78
57894;BME280;43710;47.460;19.034;2022-11-15T05:25:27;100870.31;;;8.91;86.10
57894;BME280;43710;47.460;19.034;2022-11-15T05:28:53;100873.47;;;8.83;84.42
57894;BME280;43710;47.460;19.034;2022-11-15T05:32:16;100868.25;;;9.03;92.53
57894;BME280;43710;47.460;19.034;2022-11-15T05:35:41;100871.94;;;9.34;100.00
57894;BME280;43710;47.460;19.034;2022-11-15T05:39:04;100865.78;;;9.39;95.22
57894;BME280;43710;47.460;19.034;2022-11-15T05:42:25;100873.94;;;9.70;100.00
57894;BME280;43710;47.460;19.034;2022-11-15T05:45:47;100858.97;;;9.69;100.00
57894;BME280;43710;47.460;19.034;2022-11-15T05:49:11;100855.28;;;9.95;100.00
57894;BME280;43710;47.460;19.034;2022-11-15T05:52:34;100851.47;;;9.76;83.44
57894;BME280;43710;47.460;19.034;2022-11-15T05:55:57;100851.38;;;9.45;83.69
57894;BME280;43710;47.460;19.034;2022-11-15T05:59:18;100860.41;;;9.34;84.63
57894;BME280;43710;47.460;19.034;2022-11-15T06:02:39;100861.41;;;9.17;84.18
57894;BME280;43710;47.460;19.034;2022-11-15T06:06:00;100851.75;;;9.16;91.74
57894;BME280;43710;47.460;19.034;2022-11-15T06:09:21;100849.47;;;9.40;98.67
57894;BME280;43710;47.460;19.034;2022-11-15T06:12:42;100839.94;;;9.65;100.00
57894;BME280;43710;47.460;19.034;2022-11-15T06:16:02;100838.34;;;9.69;95.64
57894;BME280;43710;47.460;19.034;2022-11-15T06:19:23;100847.69;;;9.61;85.76
57894;BME280;43710;47.460;19.034;2022-11-15T06:22:43;100847.06;;;9.39;85.88
57894;BME280;43710;47.460;19.034;2022-11-15T06:26:04;100847.28;;;9.32;94.07
57894;BME280;43710;47.460;19.034;2022-11-15T06:29:25;100855.47;;;9.73;99.16
57894;BME280;43710;47.460;19.034;2022-11-15T06:32:46;100846.28;;;9.49;84.12
57894;BME280;43710;47.460;19.034;2022-11-15T06:36:09;100851.59;;;9.38;84.12
57894;BME280;43710;47.460;19.034;2022-11-15T06:39:37;100843.81;;;9.37;84.34
57894;BME280;43710;47.460;19.034;2022-11-15T06:42:58;100855.91;;;9.45;84.69
57894;BME280;43710;47.460;19.034;2022-11-15T06:46:19;100853.81;;;9.57;96.06
57894;BME280;43710;47.460;19.034;2022-11-15T06:49:39;100859.47;;;9.65;85.35
57894;BME280;43710;47.460;19.034;2022-11-15T06:53:01;100853.50;;;9.43;94.24
57894;BME280;43710;47.460;19.034;2022-11-15T06:56:22;100846.81;;;9.46;86.35
57894;BME280;43710;47.460;19.034;2022-11-15T06:59:43;100848.94;;;9.38;85.64
57894;BME280;43710;47.460;19.034;2022-11-15T07:03:04;100844.38;;;9.39;85.66
57894;BME280;43710;47.460;19.034;2022-11-15T07:06:25;100860.75;;;9.48;93.01
57894;BME280;43710;47.460;19.034;2022-11-15T07:09:45;100851.38;;;9.50;89.14
57894;BME280;43710;47.460;19.034;2022-11-15T07:13:06;100842.22;;;9.36;87.56
57894;BME280;43710;47.460;19.034;2022-11-15T07:16:26;100850.81;;;9.43;90.06
57894;BME280;43710;47.460;19.034;2022-11-15T07:19:47;100843.59;;;9.44;86.27
57894;BME280;43710;47.460;19.034;2022-11-15T07:23:07;100838.91;;;9.76;100.00
57894;BME280;43710;47.460;19.034;2022-11-15T07:26:28;100830.59;;;9.83;97.99
57894;BME280;43710;47.460;19.034;2022-11-15T07:29:49;100823.44;;;10.04;99.29
57894;BME280;43710;47.460;19.034;2022-11-15T07:33:09;100833.87;;;9.95;86.14
57894;BME280;43710;47.460;19.034;2022-11-15T07:36:30;100834.88;;;9.69;85.72
57894;BME280;43710;47.460;19.034;2022-11-15T07:39:51;100836.97;;;9.67;84.75
57894;BME280;43710;47.460;19.034;2022-11-15T07:43:11;100836.16;;;9.56;86.63
57894;BME280;43710;47.460;19.034;2022-11-15T07:46:32;100826.87;;;9.84;96.64
57894;BME280;43710;47.460;19.034;2022-11-15T07:49:52;100830.94;;;10.12;95.05
57894;BME280;43710;47.460;19.034;2022-11-15T07:53:13;100825.31;;;10.03;95.33
57894;BME280;43710;47.460;19.034;2022-11-15T07:56:34;100842.22;;;10.24;95.37
57894;BME280;43710;47.460;19.034;2022-11-15T07:59:54;100846.97;;;9.92;85.10
57894;BME280;43710;47.460;19.034;2022-11-15T08:03:16;100830.91;;;9.92;83.40
57894;BME280;43710;47.460;19.034;2022-11-15T08:06:37;100826.59;;;9.85;96.36
57894;BME280;43710;47.460;19.034;2022-11-15T08:09:57;100822.66;;;10.14;98.09
57894;BME280;43710;47.460;19.034;2022-11-15T08:13:19;100824.53;;;10.18;90.02
57894;BME280;43710;47.460;19.034;2022-11-15T08:16:39;100817.34;;;10.34;96.50
57894;BME280;43710;47.460;19.034;2022-11-15T08:20:00;100811.41;;;10.22;87.38
57894;BME280;43710;47.460;19.034;2022-11-15T08:23:20;100809.00;;;10.25;88.35
57894;BME280;43710;47.460;19.034;2022-11-15T08:26:42;100795.59;;;10.10;88.21
57894;BME280;43710;47.460;19.034;2022-11-15T08:30:02;100800.38;;;9.87;91.77
57894;BME280;43710;47.460;19.034;2022-11-15T08:33:23;100794.81;;;10.35;100.00
57894;BME280;43710;47.460;19.034;2022-11-15T08:36:44;100808.97;;;10.15;94.18
57894;BME280;43710;47.460;19.034;2022-11-15T08:40:06;100802.28;;;10.18;94.07
57894;BME280;43710;47.460;19.034;2022-11-15T08:43:26;100803.09;;;10.18;100.00
57894;BME280;43710;47.460;19.034;2022-11-15T08:46:47;100796.13;;;9.97;91.20
57894;BME280;43710;47.460;19.034;2022-11-15T08:50:08;100784.59;;;10.01;94.71
57894;BME280;43710;47.460;19.034;2022-11-15T08:53:31;100777.66;;;10.26;90.44
57894;BME280;43710;47.460;19.034;2022-11-15T08:56:52;100771.75;;;10.19;100.00
57894;BME280;43710;47.460;19.034;2022-11-15T09:00:13;100780.59;;;10.24;100.00
57894;BME280;43710;47.460;19.034;2022-11-15T09:03:34;100781.97;;;10.47;97.06
57894;BME280;43710;47.460;19.034;2022-11-15T09:06:54;100774.19;;;10.30;90.94
57894;BME280;43710;47.460;19.034;2022-11-15T09:10:15;100766.13;;;10.46;94.92
57894;BME280;43710;47.460;19.034;2022-11-15T09:13:36;100765.34;;;10.45;97.81
57894;BME280;43710;47.460;19.034;2022-11-15T09:16:57;100754.63;;;10.40;92.24
57894;BME280;43710;47.460;19.034;2022-11-15T09:20:18;100760.22;;;10.59;97.15
57894;BME280;43710;47.460;19.034;2022-11-15T09:23:39;100756.44;;;10.75;100.00
57894;BME280;43710;47.460;19.034;2022-11-15T09:27:00;100751.94;;;10.50;90.33
57894;BME280;43710;47.460;19.034;2022-11-15T09:30:21;100755.97;;;10.38;90.17
57894;BME280;43710;47.460;19.034;2022-11-15T09:33:45;100747.94;;;10.38;93.27
57894;BME280;43710;47.460;19.034;2022-11-15T09:37:06;100758.06;;;10.56;98.50
57894;BME280;43710;47.460;19.034;2022-11-15T09:40:27;100746.28;;;10.21;95.86
57894;BME280;43710;47.460;19.034;2022-11-15T09:44:05;100742.28;;;10.29;100.00
57894;BME280;43710;47.460;19.034;2022-11-15T09:50:56;100750.88;;;10.56;100.00
57894;BME280;43710;47.460;19.034;2022-11-15T09:54:45;100742.28;;;10.60;90.89
57894;BME280;43710;47.460;19.034;2022-11-15T10:00:51;100740.97;;;10.47;90.82
57894;BME280;43710;47.460;19.034;2022-11-15T10:03:56;100733.16;;;10.45;97.86
57894;BME280;43710;47.460;19.034;2022-11-15T10:07:27;100729.69;;;10.60;94.68
57894;BME280;43710;47.460;19.034;2022-11-15T10:10:45;100727.56;;;10.37;91.71
57894;BME280;43710;47.460;19.034;2022-11-15T10:13:50;100722.47;;;10.40;99.65
57894;BME280;43710;47.460;19.034;2022-11-15T10:20:30;100708.78;;;10.42;98.27
57894;BME280;43710;47.460;19.034;2022-11-15T10:23:39;100695.34;;;10.62;96.67
57894;BME280;43710;47.460;19.034;2022-11-15T10:26:47;100695.13;;;10.33;88.59
57894;BME280;43710;47.460;19.034;2022-11-15T10:29:50;100700.22;;;10.34;99.35
57894;BME280;43710;47.460;19.034;2022-11-15T10:32:52;100698.88;;;10.32;88.12
57894;BME280;43710;47.460;19.034;2022-11-15T10:36:21;100691.94;;;10.31;95.09
57894;BME280;43710;47.460;19.034;2022-11-15T10:39:26;100684.41;;;10.43;96.12
57894;BME280;43710;47.460;19.034;2022-11-15T10:42:30;100677.16;;;10.39;89.80
57894;BME280;43710;47.460;19.034;2022-11-15T10:45:33;100675.53;;;10.43;90.61
57894;BME280;43710;47.460;19.034;2022-11-15T10:48:36;100674.22;;;10.40;97.49
57894;BME280;43710;47.460;19.034;2022-11-15T10:51:54;100669.94;;;10.39;96.98
57894;BME280;43710;47.460;19.034;2022-11-15T10:55:04;100670.16;;;10.58;100.00
57894;BME280;43710;47.460;19.034;2022-11-15T11:01:45;100652.22;;;10.53;98.43
57894;BME280;43710;47.460;19.034;2022-11-15T11:04:50;100650.37;;;10.44;88.26
57894;BME280;43710;47.460;19.034;2022-11-15T11:08:04;100653.53;;;10.66;94.26
57894;BME280;43710;47.460;19.034;2022-11-15T11:11:07;100640.31;;;10.75;96.32
57894;BME280;43710;47.460;19.034;2022-11-15T11:14:13;100636.84;;;10.69;92.23
57894;BME280;43710;47.460;19.034;2022-11-15T11:21:03;100635.28;;;10.63;99.72
57894;BME280;43710;47.460;19.034;2022-11-15T11:24:31;100628.34;;;10.52;88.90
57894;BME280;43710;47.460;19.034;2022-11-15T11:38:31;100613.03;;;10.63;99.09
57894;BME280;43710;47.460;19.034;2022-11-15T11:48:43;100602.63;;;10.51;97.28
57894;BME280;43710;47.460;19.034;2022-11-15T11:55:26;100594.41;;;10.27;88.01
57894;BME280;43710;47.460;19.034;2022-11-15T11:58:43;100598.16;;;10.31;99.95
57894;BME280;43710;47.460;19.034;2022-11-15T12:01:47;100596.00;;;10.18;89.28
57894;BME280;43710;47.460;19.034;2022-11-15T12:04:51;100585.53;;;10.16;95.43
57894;BME280;43710;47.460;19.034;2022-11-15T12:08:01;100582.56;;;10.23;93.58
57894;BME280;43710;47.460;19.034;2022-11-15T12:11:14;100582.06;;;10.21;87.54
57894;BME280;43710;47.460;19.034;2022-11-15T12:15:19;100570.00;;;10.23;86.79
57894;BME280;43710;47.460;19.034;2022-11-15T12:18:01;100560.13;;;10.08;95.60
57894;BME280;43710;47.460;19.034;2022-11-15T12:28:27;100545.66;;;10.09;92.45
57894;BME280;43710;47.460;19.034;2022-11-15T12:34:47;100549.13;;;10.20;89.62
57894;BME280;43710;47.460;19.034;2022-11-15T12:37:55;100543.41;;;10.42;100.00
57894;BME280;43710;47.460;19.034;2022-11-15T12:41:14;100534.59;;;10.42;97.53
57894;BME280;43710;47.460;19.034;2022-11-15T12:47:34;100530.56;;;10.39;94.78
57894;BME280;43710;47.460;19.034;2022-11-15T12:50:57;100519.88;;;10.34;96.34
57894;BME280;43710;47.460;19.034;2022-11-15T12:57:32;100511.06;;;10.28;92.91
57894;BME280;43710;47.460;19.034;2022-11-15T13:00:38;100516.66;;;10.32;100.00
57894;BME280;43710;47.460;19.034;2022-11-15T13:10:41;100514.81;;;10.22;100.00
57894;BME280;43710;47.460;19.034;2022-11-15T13:13:44;100519.06;;;10.39;100.00
57894;BME280;43710;47.460;19.034;2022-11-15T13:16:47;100529.50;;;10.40;100.00
57894;BME280;43710;47.460;19.034;2022-11-15T13:23:12;100522.47;;;10.49;100.00
57894;BME280;43710;47.460;19.034;2022-11-15T13:26:16;100512.66;;;10.34;99.96
57894;BME280;43710;47.460;19.034;2022-11-15T13:29:19;100503.56;;;10.30;93.92
57894;BME280;43710;47.460;19.034;2022-11-15T13:32:22;100497.13;;;10.31;94.38
57894;BME280;43710;47.460;19.034;2022-11-15T13:35:27;100493.38;;;10.27;99.22
57894;BME280;43710;47.460;19.034;2022-11-15T13:38:32;100497.87;;;10.42;95.83
57894;BME280;43710;47.460;19.034;2022-11-15T13:41:45;100495.47;;;10.35;90.46
57894;BME280;43710;47.460;19.034;2022-11-15T13:44:57;100492.13;;;10.59;98.60
57894;BME280;43710;47.460;19.034;2022-11-15T13:48:03;100477.37;;;10.67;94.03
57894;BME280;43710;47.460;19.034;2022-11-15T13:51:30;100470.19;;;10.57;93.25
57894;BME280;43710;47.460;19.034;2022-11-15T13:57:59;100470.75;;;10.54;96.23
57894;BME280;43710;47.460;19.034;2022-11-15T14:01:04;100480.97;;;10.47;95.30
57894;BME280;43710;47.460;19.034;2022-11-15T14:04:11;100470.75;;;10.54;98.12
57894;BME280;43710;47.460;19.034;2022-11-15T14:07:19;100469.94;;;10.53;93.98
57894;BME280;43710;47.460;19.034;2022-11-15T14:13:30;100467.78;;;10.55;96.59
57894;BME280;43710;47.460;19.034;2022-11-15T14:16:35;100460.53;;;10.56;89.14
57894;BME280;43710;47.460;19.034;2022-11-15T14:19:39;100467.34;;;10.33;97.89
57894;BME280;43710;47.460;19.034;2022-11-15T14:22:51;100456.69;;;10.28;90.82
57894;BME280;43710;47.460;19.034;2022-11-15T14:25:58;100445.19;;;10.17;95.37
57894;BME280;43710;47.460;19.034;2022-11-15T14:29:29;100444.44;;;10.01;90.49
57894;BME280;43710;47.460;19.034;2022-11-15T14:35:44;100435.56;;;10.11;92.41
57894;BME280;43710;47.460;19.034;2022-11-15T14:38:47;100429.66;;;10.14;91.28
57894;BME280;43710;47.460;19.034;2022-11-15T14:41:49;100422.47;;;9.99;94.96
57894;BME280;43710;47.460;19.034;2022-11-15T14:44:51;100415.00;;;9.96;90.75
57894;BME280;43710;47.460;19.034;2022-11-15T14:47:54;100422.22;;;9.96;94.51
57894;BME280;43710;47.460;19.034;2022-11-15T14:50:56;100424.97;;;9.85;90.66
57894;BME280;43710;47.460;19.034;2022-11-15T14:53:58;100420.94;;;9.88;91.69
57894;BME280;43710;47.460;19.034;2022-11-15T14:57:00;100423.87;;;9.86;90.97
57894;BME280;43710;47.460;19.034;2022-11-15T15:00:04;100414.28;;;9.80;91.18
57894;BME280;43710;47.460;19.034;2022-11-15T15:03:13;100406.75;;;9.82;92.03
57894;BME280;43710;47.460;19.034;2022-11-15T15:06:15;100411.03;;;9.88;91.75
57894;BME280;43710;47.460;19.034;2022-11-15T15:09:19;100409.41;;;9.93;98.84
57894;BME280;43710;47.460;19.034;2022-11-15T15:12:22;100406.22;;;9.85;92.93
57894;BME280;43710;47.460;19.034;2022-11-15T15:15:31;100411.25;;;9.97;93.24
57894;BME280;43710;47.460;19.034;2022-11-15T15:18:34;100403.50;;;9.96;89.56
57894;BME280;43710;47.460;19.034;2022-11-15T15:21:37;100393.81;;;10.00;91.20
57894;BME280;43710;47.460;19.034;2022-11-15T15:24:39;100386.63;;;10.00;97.88
57894;BME280;43710;47.460;19.034;2022-11-15T15:27:41;100393.88;;;9.95;92.62
57894;BME280;43710;47.460;19.034;2022-11-15T15:30:44;100394.09;;;10.03;89.26
57894;BME280;43710;47.460;19.034;2022-11-15T15:33:46;100402.16;;;9.93;96.14
57894;BME280;43710;47.460;19.034;2022-11-15T15:36:48;100402.19;;;9.88;95.41
57894;BME280;43710;47.460;19.034;2022-11-15T15:39:55;100408.38;;;9.83;90.49
57894;BME280;43710;47.460;19.034;2022-11-15T15:42:58;100411.31;;;9.82;94.20
57894;BME280;43710;47.460;19.034;2022-11-15T15:46:00;100406.72;;;9.93;94.90
57894;BME280;43710;47.460;19.034;2022-11-15T15:49:03;100408.09;;;9.85;91.09
57894;BME280;43710;47.460;19.034;2022-11-15T15:52:05;100402.50;;;9.76;92.28
57894;BME280;43710;47.460;19.034;2022-11-15T15:55:07;100400.59;;;9.82;94.58
57894;BME280;43710;47.460;19.034;2022-11-15T15:58:10;100390.13;;;9.91;99.03
57894;BME280;43710;47.460;19.034;2022-11-15T16:01:15;100388.81;;;9.88;92.80
57894;BME280;43710;47.460;19.034;2022-11-15T16:04:17;100396.03;;;9.87;92.54
57894;BME280;43710;47.460;19.034;2022-11-15T16:07:22;100385.34;;;9.87;90.74
57894;BME280;43710;47.460;19.034;2022-11-15T16:10:29;100389.84;;;9.92;93.35
57894;BME280;43710;47.460;19.034;2022-11-15T16:13:32;100385.87;;;9.84;94.09
57894;BME280;43710;47.460;19.034;2022-11-15T16:16:35;100386.44;;;9.81;90.78
57894;BME280;43710;47.460;19.034;2022-11-15T16:19:38;100390.69;;;9.87;92.78
57894;BME280;43710;47.460;19.034;2022-11-15T16:22:40;100386.09;;;9.93;96.90
57894;BME280;43710;47.460;19.034;2022-11-15T16:25:47;100388.25;;;9.91;94.91
57894;BME280;43710;47.460;19.034;2022-11-15T16:28:50;100382.13;;;9.85;90.58
57894;BME280;43710;47.460;19.034;2022-11-15T16:31:52;100383.16;;;9.89;96.01
57894;BME280;43710;47.460;19.034;2022-11-15T16:34:54;100384.59;;;9.77;96.17
57894;BME280;43710;47.460;19.034;2022-11-15T16:37:57;100384.00;;;9.85;96.19
57894;BME280;43710;47.460;19.034;2022-11-15T16:41:00;100369.78;;;9.89;96.18
57894;BME280;43710;47.460;19.034;2022-11-15T16:44:02;100377.00;;;9.89;93.01
57894;BME280;43710;47.460;19.034;2022-11-15T16:47:04;100374.88;;;9.86;99.38
57894;BME280;43710;47.460;19.034;2022-11-15T16:50:33;100364.16;;;9.86;95.05
